createdAt,value
2022-08-26T00:02:20.696Z,1.07
2022-08-26T00:04:50.693Z,1.20
2022-08-26T00:07:20.308Z,1.33
2022-08-26T00:09:50.167Z,1.50
2022-08-26T00:12:21.485Z,1.93
2022-08-26T00:14:52.844Z,0.97
2022-08-26T00:17:22.398Z,1.30
2022-08-26T00:19:52.000Z,1.57
2022-08-26T00:22:22.950Z,1.20
2022-08-26T00:24:54.121Z,1.93
2022-08-26T00:27:23.659Z,1.63
2022-08-26T00:29:55.163Z,1.47
2022-08-26T00:32:26.386Z,1.70
2022-08-26T00:34:56.080Z,1.33
2022-08-26T00:37:26.421Z,1.10
2022-08-26T00:39:56.067Z,1.50
2022-08-26T00:42:27.742Z,1.27
2022-08-26T00:44:57.513Z,2.10
2022-08-26T00:47:37.290Z,1.20
2022-08-26T00:50:11.869Z,1.00
2022-08-26T00:52:44.015Z,1.23
2022-08-26T00:55:20.521Z,1.43
2022-08-26T00:57:51.909Z,1.40
2022-08-26T01:00:28.414Z,1.93
2022-08-26T01:03:00.586Z,1.57
2022-08-26T01:05:31.294Z,1.27
2022-08-26T01:08:01.133Z,1.20
2022-08-26T01:10:33.123Z,1.33
2022-08-26T01:13:12.135Z,1.43
2022-08-26T01:15:49.199Z,1.30
2022-08-26T01:18:20.451Z,1.40
2022-08-26T01:21:03.332Z,1.53
2022-08-26T01:23:45.023Z,2.07
2022-08-26T01:26:22.415Z,1.70
2022-08-26T01:28:57.730Z,1.83
2022-08-26T01:31:31.943Z,1.67
2022-08-26T01:34:17.748Z,1.40
2022-08-26T01:36:52.089Z,1.43
2022-08-26T01:39:22.023Z,1.77
2022-08-26T01:41:57.068Z,1.63
2022-08-26T01:44:31.266Z,1.03
2022-08-26T01:47:03.126Z,1.10
2022-08-26T01:49:37.218Z,1.07
2022-08-26T01:52:09.473Z,1.20
2022-08-26T01:54:40.964Z,1.10
2022-08-26T01:57:12.693Z,1.30
2022-08-26T01:59:42.421Z,1.37
2022-08-26T02:02:12.106Z,1.40
2022-08-26T02:04:46.759Z,1.37
2022-08-26T02:07:21.634Z,1.03
2022-08-26T02:09:51.364Z,1.17
2022-08-26T02:12:22.751Z,2.10
2022-08-26T02:14:56.839Z,1.37
2022-08-26T02:17:30.987Z,1.47
2022-08-26T02:20:00.621Z,1.50
2022-08-26T02:22:32.695Z,1.80
2022-08-26T02:25:12.450Z,1.37
2022-08-26T02:27:42.213Z,1.57
2022-08-26T02:30:19.185Z,1.33
2022-08-26T02:32:49.837Z,1.53
2022-08-26T02:35:22.030Z,1.17
2022-08-26T02:37:52.847Z,1.93
2022-08-26T02:40:27.227Z,2.20
2022-08-26T02:42:57.259Z,1.17
2022-08-26T02:45:29.011Z,1.30
2022-08-26T02:47:59.612Z,1.03
2022-08-26T02:50:29.523Z,1.23
2022-08-26T02:52:59.089Z,1.30
2022-08-26T02:55:28.889Z,1.07
2022-08-26T02:57:58.692Z,1.10
2022-08-26T03:00:29.258Z,2.73
2022-08-26T03:03:00.237Z,1.37
2022-08-26T03:05:29.859Z,1.37
2022-08-26T03:07:59.786Z,1.47
2022-08-26T03:10:31.915Z,1.33
2022-08-26T03:13:05.183Z,1.20
2022-08-26T03:15:33.792Z,1.20
2022-08-26T03:18:03.509Z,1.60
2022-08-26T03:20:33.623Z,1.10
2022-08-26T03:23:04.430Z,1.30
2022-08-26T03:25:34.019Z,1.10
2022-08-26T03:28:04.760Z,1.43
2022-08-26T03:30:45.862Z,1.50
2022-08-26T03:33:16.714Z,1.60
2022-08-26T03:35:50.543Z,1.73
2022-08-26T03:38:21.576Z,1.37
2022-08-26T03:40:52.090Z,1.60
2022-08-26T03:43:23.757Z,1.20
2022-08-26T03:45:53.332Z,1.50
2022-08-26T03:48:24.309Z,1.50
2022-08-26T03:50:54.407Z,0.90
2022-08-26T03:53:24.983Z,1.50
2022-08-26T03:55:54.823Z,1.30
2022-08-26T03:58:27.240Z,1.20
2022-08-26T04:00:56.754Z,1.30
2022-08-26T04:03:45.672Z,1.87
2022-08-26T04:06:15.516Z,1.70
2022-08-26T04:08:46.389Z,1.63
2022-08-26T04:11:22.673Z,1.50
2022-08-26T04:13:52.339Z,1.63
2022-08-26T04:16:21.932Z,1.40
2022-08-26T04:18:52.338Z,1.83
2022-08-26T04:21:22.085Z,2.23
2022-08-26T04:23:52.595Z,1.80
2022-08-26T04:26:24.406Z,1.80
2022-08-26T04:28:55.715Z,2.03
2022-08-26T04:31:26.410Z,1.57
2022-08-26T04:33:57.569Z,1.90
2022-08-26T04:36:27.107Z,1.70
2022-08-26T04:38:57.558Z,2.00
2022-08-26T04:41:27.887Z,1.50
2022-08-26T04:43:59.205Z,1.50
2022-08-26T04:46:29.372Z,2.00
2022-08-26T04:48:59.148Z,1.70
2022-08-26T04:51:28.718Z,1.60
2022-08-26T04:54:00.705Z,1.33
2022-08-26T04:56:34.911Z,1.67
2022-08-26T04:59:16.660Z,1.63
2022-08-26T05:01:45.268Z,1.57
2022-08-26T05:04:16.336Z,1.47
2022-08-26T05:06:46.562Z,1.63
2022-08-26T05:09:19.873Z,1.73
2022-08-26T05:11:51.989Z,2.07
2022-08-26T05:14:23.390Z,2.13
2022-08-26T05:16:53.960Z,2.03
2022-08-26T05:19:23.894Z,1.83
2022-08-26T05:21:53.707Z,2.87
2022-08-26T05:24:23.419Z,1.90
2022-08-26T05:26:53.122Z,2.33
2022-08-26T05:29:22.928Z,1.73
2022-08-26T05:31:55.997Z,2.20
2022-08-26T05:34:25.829Z,2.23
2022-08-26T05:36:57.794Z,2.67
2022-08-26T05:39:27.534Z,2.60
2022-08-26T05:41:58.042Z,2.43
2022-08-26T05:44:27.623Z,3.00
2022-08-26T05:46:57.209Z,2.77
2022-08-26T05:49:27.767Z,3.23
2022-08-26T05:51:57.365Z,2.90
2022-08-26T05:54:27.997Z,2.33
2022-08-26T05:56:57.610Z,3.37
2022-08-26T05:59:27.296Z,2.63
2022-08-26T06:01:56.913Z,3.37
2022-08-26T06:04:28.104Z,2.73
2022-08-26T06:06:58.546Z,3.20
2022-08-26T06:09:28.624Z,2.57
2022-08-26T06:12:01.814Z,2.00
2022-08-26T06:14:31.572Z,2.23
2022-08-26T06:17:01.135Z,2.40
2022-08-26T06:19:32.716Z,2.50
2022-08-26T06:22:39.058Z,2.47
2022-08-26T06:25:27.392Z,3.07
2022-08-26T06:27:56.904Z,2.70
2022-08-26T06:30:26.397Z,2.90
2022-08-26T06:32:56.267Z,3.07
2022-08-26T06:35:27.826Z,2.77
2022-08-26T06:37:57.315Z,2.70
2022-08-26T06:40:26.906Z,2.30
2022-08-26T06:42:57.497Z,2.37
2022-08-26T06:45:26.999Z,3.10
2022-08-26T06:47:56.497Z,3.37
2022-08-26T06:50:26.145Z,2.90
2022-08-26T06:52:55.632Z,2.80
2022-08-26T06:55:27.002Z,2.90
2022-08-26T06:57:58.348Z,3.50
2022-08-26T07:00:28.257Z,3.20
2022-08-26T07:02:57.892Z,4.07
2022-08-26T07:05:27.441Z,4.70
2022-08-26T07:07:58.004Z,3.87
2022-08-26T07:10:28.753Z,4.87
2022-08-26T07:12:58.320Z,3.37
2022-08-26T07:15:31.545Z,3.13
2022-08-26T07:17:59.031Z,3.33
2022-08-26T07:20:28.526Z,3.33
2022-08-26T07:22:58.985Z,3.33
2022-08-26T07:25:28.541Z,4.23
2022-08-26T07:27:58.067Z,4.60
2022-08-26T07:30:27.567Z,3.17
2022-08-26T07:32:59.661Z,4.03
2022-08-26T07:35:29.443Z,3.10
2022-08-26T07:37:58.938Z,3.10
2022-08-26T07:40:28.571Z,2.60
2022-08-26T07:42:58.147Z,3.10
2022-08-26T07:45:30.640Z,2.80
2022-08-26T07:48:00.204Z,3.07
2022-08-26T07:50:49.169Z,3.13
2022-08-26T07:53:03.941Z,4.67
2022-08-26T07:55:34.507Z,3.57
2022-08-26T07:58:06.308Z,2.80
2022-08-26T08:00:36.036Z,3.70
2022-08-26T08:03:07.414Z,2.77
2022-08-26T08:05:41.129Z,4.00
2022-08-26T08:08:27.246Z,2.87
2022-08-26T08:10:43.247Z,3.57
2022-08-26T08:13:15.172Z,3.50
2022-08-26T08:15:44.796Z,4.80
2022-08-26T08:18:15.333Z,3.13
2022-08-26T08:21:04.788Z,2.90
2022-08-26T08:23:18.144Z,3.07
2022-08-26T08:25:49.116Z,5.10
2022-08-26T08:28:18.948Z,2.70
2022-08-26T08:30:50.215Z,7.73
2022-08-26T08:33:19.803Z,2.90
2022-08-26T08:35:49.467Z,3.17
2022-08-26T08:38:19.918Z,3.83
2022-08-26T08:40:50.125Z,3.53
2022-08-26T08:43:46.428Z,2.63
2022-08-26T08:46:19.559Z,3.67
2022-08-26T08:48:57.697Z,2.53
2022-08-26T08:51:52.425Z,4.07
2022-08-26T08:54:22.428Z,3.43
2022-08-26T08:57:11.371Z,3.07
2022-08-26T08:59:50.022Z,3.60
2022-08-26T09:02:27.306Z,2.60
2022-08-26T09:05:04.577Z,3.20
2022-08-26T09:07:52.721Z,2.30
2022-08-26T09:10:38.934Z,3.30
2022-08-26T09:13:13.749Z,5.37
2022-08-26T09:15:54.589Z,2.60
2022-08-26T09:19:12.340Z,3.87
2022-08-26T09:21:42.199Z,3.77
2022-08-26T09:24:13.902Z,3.00
2022-08-26T09:26:48.003Z,4.87
2022-08-26T09:29:30.513Z,3.67
2022-08-26T09:32:26.190Z,2.63
2022-08-26T09:35:12.484Z,3.77
2022-08-26T09:40:27.159Z,2.20
2022-08-26T09:43:22.234Z,4.43
2022-08-26T09:45:59.082Z,4.07
2022-08-26T09:48:36.101Z,4.17
2022-08-26T09:51:31.411Z,3.83
2022-08-26T09:54:05.708Z,3.03
2022-08-26T09:56:39.205Z,3.33
2022-08-26T09:59:12.203Z,5.03
2022-08-26T10:01:45.254Z,5.27
2022-08-26T10:04:26.743Z,2.90
2022-08-26T10:07:04.083Z,2.30
2022-08-26T10:09:38.198Z,2.20
2022-08-26T10:12:15.349Z,2.60
2022-08-26T10:14:54.860Z,3.63
2022-08-26T10:17:31.734Z,2.90
2022-08-26T10:20:16.807Z,2.67
2022-08-26T10:23:04.911Z,3.43
2022-08-26T10:25:47.278Z,2.53
2022-08-26T10:28:30.202Z,2.73
2022-08-26T10:31:16.042Z,2.33
2022-08-26T10:33:45.626Z,1.87
2022-08-26T10:36:52.334Z,1.73
2022-08-26T10:39:12.941Z,2.07
2022-08-26T10:41:47.764Z,1.77
2022-08-26T10:44:20.335Z,2.03
2022-08-26T10:46:57.375Z,1.43
2022-08-26T10:49:26.853Z,2.10
2022-08-26T10:52:35.990Z,1.43
2022-08-26T10:55:38.506Z,1.27
2022-08-26T10:58:44.601Z,1.50
2022-08-26T11:01:43.042Z,1.30
2022-08-26T11:04:23.175Z,2.20
2022-08-26T11:07:36.191Z,1.03
2022-08-26T11:10:22.576Z,0.93
2022-08-26T11:12:59.761Z,1.03
2022-08-26T11:15:34.131Z,0.93
2022-08-26T11:18:11.088Z,1.57
2022-08-26T11:20:47.110Z,1.03
2022-08-26T11:23:27.293Z,2.00
2022-08-26T11:26:30.028Z,2.10
2022-08-26T11:28:50.913Z,1.50
2022-08-26T11:31:30.410Z,1.83
2022-08-26T11:34:10.915Z,3.40
2022-08-26T11:36:50.056Z,2.60
2022-08-26T11:39:36.887Z,2.27
2022-08-26T11:42:31.978Z,2.20
2022-08-26T11:45:05.468Z,1.33
2022-08-26T11:47:34.379Z,2.70
2022-08-26T11:50:20.559Z,1.73
2022-08-26T11:53:00.811Z,3.00
2022-08-26T11:55:32.607Z,1.20
2022-08-26T11:58:05.740Z,1.37
2022-08-26T12:00:48.797Z,1.33
2022-08-26T12:03:46.831Z,1.07
2022-08-26T12:09:03.995Z,1.67
2022-08-26T12:11:39.041Z,1.63
2022-08-26T12:14:22.784Z,0.97
2022-08-26T12:16:54.702Z,1.20
2022-08-26T12:19:34.256Z,1.07
2022-08-26T12:22:09.641Z,1.00
2022-08-26T12:24:49.976Z,1.07
2022-08-26T12:27:30.400Z,1.40
2022-08-26T12:30:23.282Z,1.30
2022-08-26T12:33:22.793Z,1.07
2022-08-26T12:35:42.752Z,0.60
2022-08-26T12:38:12.491Z,1.37
2022-08-26T12:40:46.426Z,1.30
2022-08-26T12:43:38.880Z,1.10
2022-08-26T12:46:12.042Z,1.50
2022-08-26T12:48:45.724Z,1.40
2022-08-26T12:51:19.817Z,1.53
2022-08-26T12:53:49.398Z,1.73
2022-08-26T12:56:28.949Z,1.27
2022-08-26T12:59:23.150Z,1.00
2022-08-26T13:01:54.722Z,0.90
2022-08-26T13:04:42.729Z,1.27
2022-08-26T13:07:25.912Z,2.00
2022-08-26T13:10:01.459Z,0.90
2022-08-26T13:12:36.731Z,0.90
2022-08-26T13:15:08.214Z,1.23
2022-08-26T13:17:39.374Z,1.27
2022-08-26T13:20:09.901Z,1.83
2022-08-26T13:22:42.508Z,2.20
2022-08-26T13:25:10.736Z,1.40
2022-08-26T13:27:40.363Z,0.97
2022-08-26T13:30:12.303Z,1.10
2022-08-26T13:32:42.864Z,1.43
2022-08-26T13:35:13.311Z,1.00
2022-08-26T13:37:42.831Z,1.20
2022-08-26T13:40:13.273Z,1.23
2022-08-26T13:42:49.545Z,2.40
2022-08-26T13:45:14.179Z,1.40
2022-08-26T13:47:44.648Z,2.87
2022-08-26T13:50:14.583Z,0.97
2022-08-26T13:52:44.116Z,1.10
2022-08-26T13:55:13.605Z,1.03
2022-08-26T13:57:43.095Z,1.03
2022-08-26T14:00:13.882Z,0.70
2022-08-26T14:02:43.376Z,0.83
2022-08-26T14:05:13.337Z,0.80
2022-08-26T14:07:43.188Z,0.70
2022-08-26T14:10:13.526Z,1.00
2022-08-26T14:12:43.880Z,1.00
2022-08-26T14:15:15.868Z,0.90
2022-08-26T14:17:48.036Z,0.90
2022-08-26T14:20:27.311Z,0.70
2022-08-26T14:23:13.004Z,0.67
2022-08-26T14:25:28.998Z,0.83
2022-08-26T14:27:58.662Z,0.80
2022-08-26T14:30:28.590Z,0.90
2022-08-26T14:33:00.195Z,2.13
2022-08-26T14:35:31.987Z,1.60
2022-08-26T14:38:01.481Z,1.50
2022-08-26T14:40:34.035Z,1.83
2022-08-26T14:43:06.617Z,1.67
2022-08-26T14:48:10.889Z,1.03
2022-08-26T14:50:40.420Z,0.80
2022-08-26T14:53:27.963Z,0.80
2022-08-26T14:55:57.453Z,0.77
2022-08-26T14:58:28.577Z,0.70
2022-08-26T15:00:58.166Z,0.73
2022-08-26T15:03:29.445Z,0.60
2022-08-26T15:05:59.854Z,2.63
2022-08-26T15:08:29.398Z,0.93
2022-08-26T15:10:59.541Z,1.57
2022-08-26T15:13:29.039Z,1.47
2022-08-26T15:15:58.624Z,1.03
2022-08-26T15:18:28.131Z,0.90
2022-08-26T15:20:57.686Z,0.97
2022-08-26T15:23:27.183Z,1.63
2022-08-26T15:25:57.440Z,0.93
2022-08-26T15:28:27.107Z,1.47
2022-08-26T15:30:57.641Z,0.80
2022-08-26T15:33:27.286Z,1.10
2022-08-26T15:35:58.651Z,0.87
2022-08-26T15:38:31.431Z,0.83
2022-08-26T15:41:03.438Z,1.50
2022-08-26T15:43:33.555Z,1.27
2022-08-26T15:46:03.090Z,1.00
2022-08-26T15:48:32.752Z,1.90
2022-08-26T15:51:04.285Z,0.90
2022-08-26T15:53:36.278Z,1.20
2022-08-26T15:56:05.823Z,1.17
2022-08-26T15:58:35.398Z,1.00
2022-08-26T16:01:06.507Z,1.10
2022-08-26T16:03:36.714Z,1.17
2022-08-26T16:06:06.896Z,0.93
2022-08-26T16:08:36.930Z,0.60
2022-08-26T16:11:06.487Z,0.63
2022-08-26T16:13:39.950Z,0.70
2022-08-26T16:16:08.688Z,0.97
2022-08-26T16:18:39.034Z,0.73
2022-08-26T16:21:13.690Z,1.10
2022-08-26T16:23:40.079Z,0.90
2022-08-26T16:26:16.735Z,1.00
2022-08-26T16:28:47.354Z,1.17
2022-08-26T16:31:17.879Z,1.17
2022-08-26T16:33:47.477Z,1.30
2022-08-26T16:36:17.768Z,0.87
2022-08-26T16:38:54.673Z,0.80
2022-08-26T16:41:26.827Z,0.63
2022-08-26T16:43:57.167Z,0.80
2022-08-26T16:46:28.304Z,0.70
2022-08-26T16:48:59.509Z,0.70
2022-08-26T16:51:30.391Z,0.70
2022-08-26T16:54:02.707Z,0.70
2022-08-26T16:56:34.499Z,0.80
2022-08-26T16:59:07.638Z,1.00
2022-08-26T17:01:37.620Z,0.80
2022-08-26T17:04:07.402Z,0.77
2022-08-26T17:06:38.222Z,0.90
2022-08-26T17:09:08.827Z,0.73
2022-08-26T17:11:38.307Z,0.83
2022-08-26T17:14:08.450Z,1.10
2022-08-26T17:16:38.764Z,0.53
2022-08-26T17:19:08.425Z,0.70
2022-08-26T17:21:40.600Z,0.67
2022-08-26T17:24:10.242Z,0.90
2022-08-26T17:26:40.276Z,0.90
2022-08-26T17:29:09.775Z,0.90
2022-08-26T17:31:40.772Z,1.13
2022-08-26T17:34:11.991Z,0.97
2022-08-26T17:36:41.480Z,1.17
2022-08-26T17:39:11.231Z,0.80
2022-08-26T17:41:42.431Z,0.93
2022-08-26T17:44:12.463Z,1.57
2022-08-26T17:46:42.005Z,0.83
2022-08-26T17:49:11.544Z,0.93
2022-08-26T17:51:41.018Z,0.80
2022-08-26T17:54:10.508Z,0.60
2022-08-26T17:56:40.062Z,0.70
2022-08-26T17:59:10.950Z,0.50
2022-08-26T18:01:40.448Z,0.90
2022-08-26T18:04:10.601Z,0.73
2022-08-26T18:06:40.858Z,0.73
2022-08-26T18:09:10.620Z,1.57
2022-08-26T18:11:41.013Z,0.90
2022-08-26T18:14:10.571Z,0.63
2022-08-26T18:16:41.665Z,0.80
2022-08-26T18:19:12.611Z,0.57
2022-08-26T18:21:42.103Z,0.60
2022-08-26T18:24:13.961Z,0.60
2022-08-26T18:26:48.782Z,0.60
2022-08-26T18:29:21.585Z,0.70
2022-08-26T18:31:51.070Z,0.77
2022-08-26T18:34:21.124Z,0.60
2022-08-26T18:36:51.159Z,0.90
2022-08-26T18:39:22.180Z,0.67
2022-08-26T18:41:53.669Z,0.80
2022-08-26T18:44:24.163Z,1.17
2022-08-26T18:46:54.109Z,0.83
2022-08-26T18:49:23.590Z,1.10
2022-08-26T18:51:53.585Z,1.00
2022-08-26T18:54:23.163Z,0.70
2022-08-26T18:56:52.799Z,0.90
2022-08-26T18:59:30.369Z,1.27
2022-08-26T19:01:54.074Z,1.00
2022-08-26T19:04:23.612Z,1.40
2022-08-26T19:06:53.639Z,1.10
2022-08-26T19:09:24.872Z,0.67
2022-08-26T19:14:26.248Z,0.70
2022-08-26T19:16:56.096Z,1.00
2022-08-26T19:19:25.571Z,1.13
2022-08-26T19:21:56.072Z,0.83
2022-08-26T19:24:25.974Z,0.93
2022-08-26T19:27:01.015Z,1.20
2022-08-26T19:29:34.902Z,0.80
2022-08-26T19:32:06.081Z,1.10
2022-08-26T19:34:36.464Z,1.00
2022-08-26T19:37:05.939Z,0.90
2022-08-26T19:39:36.092Z,0.70
2022-08-26T19:42:05.721Z,1.00
2022-08-26T19:44:53.045Z,1.03
2022-08-26T19:47:22.544Z,1.50
2022-08-26T19:49:54.707Z,1.07
2022-08-26T19:52:30.034Z,1.00
2022-08-26T19:54:57.808Z,0.83
2022-08-26T19:57:27.580Z,1.53
2022-08-26T19:59:57.060Z,1.30
2022-08-26T20:02:26.577Z,2.03
2022-08-26T20:04:56.038Z,1.50
2022-08-26T20:07:25.536Z,1.33
2022-08-26T20:09:55.033Z,0.90
2022-08-26T20:12:24.941Z,1.00
2022-08-26T20:14:55.670Z,1.07
2022-08-26T20:17:25.331Z,1.07
2022-08-26T20:20:20.053Z,1.20
2022-08-26T20:22:44.583Z,1.30
2022-08-26T20:25:15.355Z,1.10
2022-08-26T20:27:45.027Z,0.90
2022-08-26T20:30:15.203Z,1.10
2022-08-26T20:32:45.170Z,0.80
2022-08-26T20:35:15.963Z,0.97
2022-08-26T20:37:45.456Z,2.03
2022-08-26T20:40:16.596Z,1.10
2022-08-26T20:42:46.131Z,1.20
2022-08-26T20:45:15.620Z,0.93
2022-08-26T20:47:45.147Z,0.97
2022-08-26T20:50:14.689Z,1.00
2022-08-26T20:52:44.188Z,1.17
2022-08-26T20:55:13.682Z,1.00
2022-08-26T20:57:43.333Z,1.30
2022-08-26T21:00:15.606Z,0.97
2022-08-26T21:02:46.509Z,1.20
2022-08-26T21:05:16.106Z,0.93
2022-08-26T21:07:45.948Z,1.10
2022-08-26T21:10:16.369Z,1.33
2022-08-26T21:12:45.940Z,1.20
2022-08-26T21:15:16.548Z,1.23
2022-08-26T21:17:46.115Z,0.80
2022-08-26T21:20:15.605Z,1.20
2022-08-26T21:22:45.171Z,1.23
2022-08-26T21:25:14.666Z,1.50
2022-08-26T21:27:44.411Z,1.27
2022-08-26T21:30:16.729Z,0.97
2022-08-26T21:32:46.220Z,1.30
2022-08-26T21:35:15.775Z,0.80
2022-08-26T21:37:45.280Z,0.80
2022-08-26T21:40:15.065Z,1.00
2022-08-26T21:42:44.695Z,1.63
2022-08-26T21:45:14.651Z,0.97
2022-08-26T21:47:44.825Z,1.07
2022-08-26T21:50:14.388Z,0.90
2022-08-26T21:52:43.965Z,1.27
2022-08-26T21:55:13.607Z,1.20
2022-08-26T21:57:43.198Z,1.00
2022-08-26T22:00:15.704Z,1.00
2022-08-26T22:02:45.452Z,0.87
2022-08-26T22:05:15.111Z,1.63
2022-08-26T22:07:44.623Z,1.57
2022-08-26T22:10:14.112Z,1.17
2022-08-26T22:12:43.631Z,1.23
2022-08-26T22:15:13.510Z,1.43
2022-08-26T22:17:43.122Z,1.17
2022-08-26T22:20:16.533Z,1.53
2022-08-26T22:22:44.991Z,1.53
2022-08-26T22:25:14.616Z,1.53
2022-08-26T22:27:44.117Z,1.40
2022-08-26T22:30:14.467Z,1.30
2022-08-26T22:32:45.703Z,1.23
2022-08-26T22:35:28.897Z,1.33
2022-08-26T22:37:48.967Z,1.00
2022-08-26T22:40:18.974Z,1.03
2022-08-26T22:42:58.033Z,1.30
2022-08-26T22:45:21.706Z,1.40
2022-08-26T22:47:51.182Z,1.30
2022-08-26T22:50:20.724Z,1.00
2022-08-26T22:52:50.230Z,1.40
2022-08-26T22:55:19.716Z,1.03
2022-08-26T22:57:49.382Z,1.20
2022-08-26T23:00:19.041Z,1.90
2022-08-26T23:02:48.559Z,1.00
2022-08-26T23:05:18.121Z,1.03
2022-08-26T23:07:47.620Z,1.20
2022-08-26T23:10:17.107Z,1.33
2022-08-26T23:12:46.613Z,1.27
2022-08-26T23:15:16.268Z,1.10
2022-08-26T23:17:48.239Z,1.00
2022-08-26T23:20:21.173Z,1.10
2022-08-26T23:22:50.659Z,1.57
2022-08-26T23:25:20.425Z,1.27
2022-08-26T23:27:50.233Z,1.10
2022-08-26T23:30:24.332Z,1.20
2022-08-26T23:32:54.354Z,1.20
2022-08-26T23:35:24.875Z,1.20
2022-08-26T23:37:54.835Z,1.33
2022-08-26T23:40:32.011Z,0.97
2022-08-26T23:43:04.900Z,1.30
2022-08-26T23:45:36.481Z,1.40
2022-08-26T23:48:07.049Z,1.37
2022-08-26T23:50:54.781Z,1.37
2022-08-26T23:53:24.827Z,1.90
2022-08-26T23:55:55.435Z,2.80
2022-08-26T23:58:24.914Z,2.00
